TimeAKST,TemperatureF,Dew PointF,Humidity,Sea Level PressureIn,VisibilityMPH,Wind Direction,Wind SpeedMPH,Gust SpeedMPH,PrecipitationIn,Events,Conditions,WindDirDegrees,DateUTC
12:53 AM,10.0,1.9,70,30.20,4.0,NNE,6.9,-,0.00,,Haze,30,2013-01-30 09:53:00
1:53 AM,10.9,1.9,67,30.20,9.0,Calm,Calm,-,0.00,,Overcast,0,2013-01-30 10:53:00
2:42 AM,10.4,3.2,73,30.21,8.0,Calm,Calm,-,N/A,,Overcast,0,2013-01-30 11:42:00
3:26 AM,12.2,5.0,73,30.21,10.0,Calm,Calm,-,N/A,,Overcast,0,2013-01-30 12:26:00
3:53 AM,12.0,5.0,73,30.22,10.0,Calm,Calm,-,N/A,,Overcast,0,2013-01-30 12:53:00
4:53 AM,12.0,6.1,77,30.22,10.0,ENE,3.5,-,N/A,,Overcast,60,2013-01-30 13:53:00
5:53 AM,12.0,6.1,77,30.22,7.0,Calm,Calm,-,N/A,,Overcast,0,2013-01-30 14:53:00
6:53 AM,12.9,7.0,77,30.22,5.0,ENE,4.6,-,N/A,,Haze,60,2013-01-30 15:53:00
7:06 AM,12.2,8.6,85,30.21,5.0,NE,3.5,-,N/A,,Haze,50,2013-01-30 16:06:00
7:53 AM,12.9,8.1,81,30.22,5.0,Calm,Calm,-,0.00,,Haze,0,2013-01-30 16:53:00
8:53 AM,14.0,9.0,80,30.22,6.0,Calm,Calm,-,0.00,,Haze,0,2013-01-30 17:53:00
9:53 AM,15.1,10.0,80,30.21,2.5,East,3.5,-,0.00,Snow,Light Snow,90,2013-01-30 18:53:00
10:01 AM,15.8,10.4,79,30.20,3.0,Calm,Calm,-,0.00,,Haze,0,2013-01-30 19:01:00
10:53 AM,17.1,12.0,81,30.22,4.0,ESE,3.5,-,0.00,,Haze,110,2013-01-30 19:53:00
11:11 AM,17.6,10.4,73,30.21,2.5,Calm,Calm,-,0.00,Snow,Light Snow,0,2013-01-30 20:11:00
11:21 AM,17.6,12.2,79,30.21,3.0,Calm,Calm,-,0.00,,Haze,0,2013-01-30 20:21:00
11:53 AM,19.0,14.0,81,30.21,2.5,Calm,Calm,-,0.00,Snow,Light Snow,0,2013-01-30 20:53:00
12:00 PM,19.4,14.0,80,30.20,4.0,Calm,Calm,-,0.00,,Haze,0,2013-01-30 21:00:00
12:34 PM,19.4,15.8,86,30.20,2.5,Calm,Calm,-,0.00,Snow,Light Snow,0,2013-01-30 21:34:00
12:46 PM,19.4,14.0,80,30.19,3.0,Calm,Calm,-,0.00,Snow,Light Snow,0,2013-01-30 21:46:00
12:53 PM,19.0,14.0,81,30.19,4.0,Calm,Calm,-,0.00,,Haze,0,2013-01-30 21:53:00
1:53 PM,19.9,16.0,85,30.17,8.0,Calm,Calm,-,N/A,,Overcast,0,2013-01-30 22:53:00
2:43 PM,21.2,15.8,80,30.16,9.0,Calm,Calm,-,N/A,,Overcast,0,2013-01-30 23:43:00
2:53 PM,21.9,16.0,78,30.15,10.0,Calm,Calm,-,N/A,,Overcast,0,2013-01-30 23:53:00
3:53 PM,21.0,16.0,81,30.13,10.0,Calm,Calm,-,N/A,,Overcast,0,2013-01-31 00:53:00
4:53 PM,21.9,17.1,82,30.12,10.0,Calm,Calm,-,N/A,,Overcast,0,2013-01-31 01:53:00
5:08 PM,21.2,17.6,86,30.11,10.0,Calm,Calm,-,N/A,,Overcast,0,2013-01-31 02:08:00
5:53 PM,21.9,16.0,78,30.10,10.0,NE,3.5,-,N/A,,Overcast,40,2013-01-31 02:53:00
6:34 PM,23.0,17.6,80,30.07,10.0,Calm,Calm,-,N/A,,Overcast,0,2013-01-31 03:34:00
6:53 PM,21.9,16.0,78,30.07,10.0,Calm,Calm,-,N/A,,Overcast,0,2013-01-31 03:53:00
7:19 PM,21.2,17.6,86,30.06,10.0,Calm,Calm,-,N/A,,Overcast,0,2013-01-31 04:19:00
7:53 PM,21.9,17.1,82,30.05,10.0,NNE,3.5,-,N/A,,Overcast,30,2013-01-31 04:53:00
8:53 PM,21.9,17.1,82,30.03,10.0,Calm,Calm,-,N/A,,Overcast,0,2013-01-31 05:53:00
9:53 PM,21.9,17.1,82,30.01,10.0,ENE,3.5,-,N/A,,Overcast,60,2013-01-31 06:53:00
10:53 PM,23.0,18.0,81,29.98,10.0,Calm,Calm,-,N/A,,Overcast,0,2013-01-31 07:53:00
11:28 PM,23.0,17.6,80,29.97,10.0,Calm,Calm,-,N/A,,Overcast,0,2013-01-31 08:28:00
11:53 PM,23.0,19.0,85,29.96,10.0,NE,3.5,-,N/A,,Overcast,40,2013-01-31 08:53:00